Pagina principale
METAR-TAF:

METAR-TAF

Aeroporti :

Aeroporto di Parma

Parma, Italia

latitudine: 44-49-17N, longitudine: 010-17-41E, altezza: 50 m

Osservazione

Il bollettino è stato emesso 2 ore e 20 minuti fa, alle 19:50 UTC
Vento 3 kt da sud-ovest
Temperature 3°C
Umidità 93%
Pressione 1025 hPa
Visibilità 10 km o più
nessuna nube inferiore a 1500 m e nessun cumulonembo

METAR: LIMP 171950Z 22003KT CAVOK 03/02 Q1025

Ora: 23:10 (22:10 UTC)

Previsione

Il bollettino è stato emesso 5 ore e 10 minuti fa, alle 17:00 UTC
Previsione valida dal 17 alle 18 UTC al 18 alle 18 UTC
Vento 7 kt da est
Visibilità 10 km o più
Nubi sparse ad un'altezza di 5000 ft

TAF: LIMP 171700Z 1718/1818 09007KT 9999 SCT050

Osservazioni e previsioni meteorologiche di più di 4000 aeroporti (messaggi METAR e TAF).

Le stazioni disponibili sono rappresentate dai dischi gialli e rossi sulla carta.

Puntare il mouse per vedere il nome della stazione.

Clicca sopra per visualizzare le osservazioni e previsioni meteorologiche.

Per cambiare la mappa : fare clic sui pulsanti verdi con una croce nera per ingrandire, il pulsante verde con un trattino per diminuire, o sulla freccia verde per le mappe adiacenti.


METAR-TAF: